createdAt,value
2018-09-23T00:00:18.674Z,12.68
2018-09-23T00:01:18.650Z,12.65
2018-09-23T00:02:18.667Z,12.68
2018-09-23T00:03:18.687Z,12.7
2018-09-23T00:04:33.467Z,12.65
2018-09-23T00:05:18.724Z,12.64
2018-09-23T00:06:18.744Z,12.62
2018-09-23T00:07:18.770Z,12.57
2018-09-23T00:08:18.790Z,12.68
2018-09-23T00:09:33.467Z,12.59
2018-09-23T00:10:18.831Z,12.46
2018-09-23T00:11:18.850Z,12.62
2018-09-23T00:12:18.621Z,12.56
2018-09-23T00:13:18.892Z,12.47
2018-09-23T00:14:18.926Z,12.54
2018-09-23T00:15:18.935Z,12.53
2018-09-23T00:16:33.613Z,12.53
2018-09-23T00:17:18.971Z,12.59
2018-09-23T00:18:18.994Z,12.59
2018-09-23T00:20:19.039Z,12.45
2018-09-23T00:21:19.055Z,12.57
2018-09-23T00:22:33.802Z,12.59
2018-09-23T00:23:19.096Z,12.56
2018-09-23T00:24:19.121Z,12.41
2018-09-23T00:25:19.142Z,12.47
2018-09-23T00:26:33.817Z,12.47
2018-09-23T00:27:19.177Z,12.49
2018-09-23T00:28:19.206Z,12.57
2018-09-23T00:29:18.962Z,12.52
2018-09-23T00:30:19.238Z,12.52
2018-09-23T00:31:19.261Z,12.42
2018-09-23T00:32:33.942Z,12.45
2018-09-23T00:33:19.305Z,12.46
2018-09-23T00:34:19.063Z,12.5
2018-09-23T00:35:19.391Z,12.45
2018-09-23T00:36:34.027Z,12.37
2018-09-23T00:37:19.383Z,12.45
2018-09-23T00:38:19.402Z,12.46
2018-09-23T00:39:19.427Z,12.47
2018-09-23T00:40:34.106Z,12.49
2018-09-23T00:41:34.125Z,12.42
2018-09-23T00:42:33.888Z,12.35
2018-09-23T00:43:19.246Z,12.31
2018-09-23T00:44:19.267Z,12.42
2018-09-23T00:45:19.553Z,12.35
2018-09-23T00:46:19.583Z,12.38
2018-09-23T00:47:19.590Z,12.39
2018-09-23T00:48:34.010Z,12.34
2018-09-23T00:49:19.626Z,12.41
2018-09-23T00:50:19.390Z,12.42
2018-09-23T00:51:19.676Z,12.49
2018-09-23T00:53:19.712Z,12.47
2018-09-23T00:54:19.730Z,12.5
2018-09-23T00:55:19.750Z,12.42
2018-09-23T00:56:19.519Z,12.49
2018-09-23T00:57:19.788Z,12.5
2018-09-23T00:58:34.471Z,12.41
2018-09-23T00:59:19.575Z,12.45
2018-09-23T01:00:19.868Z,12.41
2018-09-23T01:01:19.873Z,12.39
2018-09-23T01:02:19.892Z,12.5
2018-09-23T01:03:19.911Z,12.39
2018-09-23T01:04:34.336Z,12.46
2018-09-23T01:05:19.955Z,12.47
2018-09-23T01:06:19.980Z,12.41
2018-09-23T01:07:19.999Z,12.46
2018-09-23T01:08:20.020Z,12.49
2018-09-23T01:09:20.037Z,12.46
2018-09-23T01:10:20.053Z,12.46
2018-09-23T01:11:20.079Z,12.41
2018-09-23T01:12:20.100Z,12.46
2018-09-23T01:13:19.866Z,12.46
2018-09-23T01:14:19.621Z,12.45
2018-09-23T01:15:20.158Z,12.42
2018-09-23T01:16:20.181Z,12.46
2018-09-23T01:17:20.198Z,12.46
2018-09-23T01:18:20.260Z,12.47
2018-09-23T01:19:34.904Z,12.49
2018-09-23T01:20:20.262Z,12.46
2018-09-23T01:21:20.038Z,12.45
2018-09-23T01:22:20.303Z,12.42
2018-09-23T01:23:34.985Z,12.42
2018-09-23T01:24:20.348Z,12.39
2018-09-23T01:25:20.364Z,12.29
2018-09-23T01:26:20.383Z,12.29
2018-09-23T01:27:20.402Z,12.24
2018-09-23T01:28:20.423Z,12.31
2018-09-23T01:29:35.102Z,12.28
2018-09-23T01:30:20.464Z,12.31
2018-09-23T01:31:20.227Z,12.2
2018-09-23T01:32:20.512Z,12.17
2018-09-23T01:33:20.526Z,12.13
2018-09-23T01:34:20.541Z,12.1
2018-09-23T01:35:20.565Z,12.13
2018-09-23T01:37:35.273Z,12.07
2018-09-23T01:38:20.630Z,12.14
2018-09-23T01:39:20.646Z,12.04
2018-09-23T01:40:20.409Z,12.07
2018-09-23T01:41:20.684Z,11.99
2018-09-23T01:42:20.704Z,11.96
2018-09-23T01:43:20.773Z,11.88
2018-09-23T01:44:35.407Z,11.85
2018-09-23T01:45:20.509Z,11.73
2018-09-23T01:47:20.812Z,11.8
2018-09-23T01:48:20.828Z,11.75
2018-09-23T01:49:20.333Z,11.79
2018-09-23T01:50:20.870Z,11.73
2018-09-23T01:51:35.549Z,11.69
2018-09-23T01:52:20.908Z,11.64
2018-09-23T01:53:20.940Z,11.64
2018-09-23T01:55:20.972Z,11.57
2018-09-23T01:56:20.734Z,11.61
2018-09-23T01:57:20.757Z,11.58
2018-09-23T01:58:20.512Z,11.55
2018-09-23T01:59:20.798Z,11.54
2018-09-23T02:00:21.117Z,11.52
2018-09-23T02:01:21.089Z,11.54
2018-09-23T02:02:35.768Z,11.49
2018-09-23T02:03:20.618Z,11.47
2018-09-23T02:04:20.897Z,11.47
2018-09-23T02:05:21.173Z,11.44
2018-09-23T02:06:21.191Z,11.43
2018-09-23T02:07:35.612Z,11.43
2018-09-23T02:08:21.230Z,11.35
2018-09-23T02:09:21.253Z,11.37
2018-09-23T02:10:21.271Z,11.35
2018-09-23T02:11:21.291Z,11.39
2018-09-23T02:12:21.052Z,11.36
2018-09-23T02:13:21.072Z,11.32
2018-09-23T02:14:21.354Z,11.32
2018-09-23T02:15:21.117Z,11.29
2018-09-23T02:16:36.051Z,11.29
2018-09-23T02:17:21.153Z,11.42
2018-09-23T02:18:21.438Z,11.37
2018-09-23T02:19:21.453Z,11.28
2018-09-23T02:20:21.211Z,11.25
2018-09-23T02:21:21.807Z,11.24
2018-09-23T02:22:21.253Z,11.25
2018-09-23T02:23:35.933Z,11.28
2018-09-23T02:24:21.559Z,11.28
2018-09-23T02:25:21.318Z,11.28
2018-09-23T02:26:21.333Z,11.22
2018-09-23T02:27:21.620Z,11.24
2018-09-23T02:28:21.639Z,11.14
2018-09-23T02:29:36.312Z,11.24
2018-09-23T02:31:21.444Z,11.17
2018-09-23T02:32:21.729Z,11.21
2018-09-23T02:33:21.739Z,11.17
2018-09-23T02:34:21.751Z,11.28
2018-09-23T02:35:21.771Z,11.21
2018-09-23T02:36:21.534Z,11.28
2018-09-23T02:37:21.809Z,11.19
2018-09-23T02:38:21.846Z,11.18
2018-09-23T02:39:36.511Z,11.15
2018-09-23T02:40:21.880Z,11.09
2018-09-23T02:41:21.890Z,11.11
2018-09-23T02:42:21.664Z,11.07
2018-09-23T02:43:36.597Z,11.09
2018-09-23T02:44:21.955Z,11.15
2018-09-23T02:45:21.969Z,11.11
2018-09-23T02:46:21.996Z,11.14
2018-09-23T02:47:22.106Z,11.15
2018-09-23T02:48:22.044Z,11.11
2018-09-23T02:49:22.053Z,11.14
2018-09-23T02:50:21.817Z,11.19
2018-09-23T02:51:22.088Z,11.11
2018-09-23T02:52:22.112Z,11.11
2018-09-23T02:53:22.141Z,11.06
2018-09-23T02:54:36.806Z,11.07
2018-09-23T02:56:22.186Z,11.02
2018-09-23T02:58:22.233Z,11.06
2018-09-23T02:59:21.988Z,11
2018-09-23T03:00:22.009Z,11.06
2018-09-23T03:01:22.287Z,10.99
2018-09-23T03:02:36.969Z,10.91
2018-09-23T03:03:22.329Z,10.88
2018-09-23T03:04:22.348Z,10.88
2018-09-23T03:05:22.376Z,10.91
2018-09-23T03:06:22.129Z,10.88
2018-09-23T03:08:22.170Z,10.91
2018-09-23T03:09:22.451Z,10.88
2018-09-23T03:10:22.464Z,10.86
2018-09-23T03:11:22.490Z,10.89
2018-09-23T03:12:22.245Z,10.86
2018-09-23T03:13:22.266Z,10.84
2018-09-23T03:14:22.547Z,10.84
2018-09-23T03:15:37.229Z,10.84
2018-09-23T03:16:22.328Z,10.96
2018-09-23T03:17:22.348Z,10.85
2018-09-23T03:18:37.285Z,10.91
2018-09-23T03:19:22.391Z,10.97
2018-09-23T03:20:22.671Z,10.88
2018-09-23T03:21:22.696Z,10.97
2018-09-23T03:22:22.706Z,10.96
2018-09-23T03:23:22.726Z,10.91
2018-09-23T03:24:22.743Z,10.88
2018-09-23T03:25:22.505Z,10.85
2018-09-23T03:26:37.444Z,10.74
2018-09-23T03:27:22.801Z,10.71
2018-09-23T03:28:22.835Z,10.68
2018-09-23T03:29:22.853Z,10.67
2018-09-23T03:30:22.873Z,10.61
2018-09-23T03:31:22.909Z,10.48
2018-09-23T03:32:22.906Z,10.6
2018-09-23T03:33:22.924Z,10.59
2018-09-23T03:34:22.940Z,10.51
2018-09-23T03:35:22.979Z,10.6
2018-09-23T03:36:22.985Z,10.55
2018-09-23T03:37:23.019Z,10.51
2018-09-23T03:38:22.762Z,10.53
2018-09-23T03:39:23.038Z,10.48
2018-09-23T03:40:23.061Z,10.47
2018-09-23T03:41:23.075Z,10.47
2018-09-23T03:42:37.766Z,10.47
2018-09-23T03:43:23.119Z,10.48
2018-09-23T03:44:23.138Z,10.42
2018-09-23T03:46:23.177Z,10.36
2018-09-23T03:47:23.198Z,10.38
2018-09-23T03:48:22.959Z,10.32
2018-09-23T03:49:23.234Z,10.25
2018-09-23T03:50:22.998Z,10.23
2018-09-23T03:51:23.276Z,10.33
2018-09-23T03:52:23.294Z,10.22
2018-09-23T03:53:23.323Z,10.26
2018-09-23T03:54:23.332Z,10.18
2018-09-23T03:55:23.352Z,10.17
2018-09-23T03:56:23.374Z,10.22
2018-09-23T03:57:23.389Z,10.22
2018-09-23T03:58:38.082Z,10.2
2018-09-23T04:00:23.193Z,10.17
2018-09-23T04:01:23.469Z,10.11
2018-09-23T04:02:23.238Z,10.11
2018-09-23T04:03:23.253Z,10.17
2018-09-23T04:04:23.532Z,10.22
2018-09-23T04:05:23.290Z,10.25
2018-09-23T04:06:38.229Z,10.17
2018-09-23T04:07:23.591Z,10.15
2018-09-23T04:08:23.610Z,10.15
2018-09-23T04:09:23.628Z,10.25
2018-09-23T04:11:23.666Z,10.18
2018-09-23T04:12:23.701Z,10.22
2018-09-23T04:13:23.702Z,10.29
2018-09-23T04:14:38.387Z,10.3
2018-09-23T04:15:23.747Z,10.25
2018-09-23T04:16:23.504Z,10.29
2018-09-23T04:17:23.790Z,10.25
2018-09-23T04:18:23.907Z,10.33
2018-09-23T04:19:23.829Z,10.33
2018-09-23T04:20:23.841Z,10.34
2018-09-23T04:21:23.859Z,10.42
2018-09-23T04:22:23.879Z,10.47
2018-09-23T04:23:38.304Z,10.51
2018-09-23T04:24:23.658Z,10.56
2018-09-23T04:25:23.957Z,10.63
2018-09-23T04:26:23.962Z,10.6
2018-09-23T04:27:23.984Z,10.74
2018-09-23T04:28:23.995Z,10.67
2018-09-23T04:29:38.684Z,10.74
2018-09-23T04:30:24.040Z,10.74
2018-09-23T04:31:24.062Z,10.71
2018-09-23T04:32:24.080Z,10.71
2018-09-23T04:33:24.102Z,10.82
2018-09-23T04:34:24.116Z,10.89
2018-09-23T04:35:23.875Z,10.89
2018-09-23T04:36:23.899Z,10.89
2018-09-23T04:37:24.173Z,10.88
2018-09-23T04:38:23.934Z,10.97
2018-09-23T04:39:24.229Z,10.92
2018-09-23T04:40:24.243Z,11
2018-09-23T04:41:23.994Z,10.96
2018-09-23T04:42:24.007Z,10.94
2018-09-23T04:43:24.297Z,11.06
2018-09-23T04:44:24.311Z,11.03
2018-09-23T04:46:24.347Z,11.06
2018-09-23T04:47:24.374Z,11.04
2018-09-23T04:48:24.389Z,11.09
2018-09-23T04:49:24.411Z,11.07
2018-09-23T04:50:24.433Z,11.18
2018-09-23T04:51:24.446Z,11.17
2018-09-23T04:52:24.465Z,11.24
2018-09-23T04:53:24.235Z,11.19
2018-09-23T04:54:39.165Z,11.22
2018-09-23T04:55:24.736Z,11.24
2018-09-23T04:56:24.543Z,11.22
2018-09-23T04:58:24.582Z,11.21
2018-09-23T04:59:24.344Z,11.19
2018-09-23T05:00:24.622Z,11.27
2018-09-23T05:01:39.046Z,11.27
2018-09-23T05:03:24.684Z,11.24
2018-09-23T05:04:24.442Z,11.37
2018-09-23T05:05:24.764Z,11.35
2018-09-23T05:06:24.743Z,11.24
2018-09-23T05:07:24.760Z,11.36
2018-09-23T05:08:24.783Z,11.37
2018-09-23T05:09:39.460Z,11.37
2018-09-23T05:10:39.480Z,11.43
2018-09-23T05:11:24.842Z,11.44
2018-09-23T05:12:24.856Z,11.42
2018-09-23T05:13:24.668Z,11.46
2018-09-23T05:14:24.906Z,11.42
2018-09-23T05:15:24.921Z,11.57
2018-09-23T05:16:24.942Z,11.57
2018-09-23T05:17:39.618Z,11.6
2018-09-23T05:18:24.720Z,11.65
2018-09-23T05:19:24.741Z,11.61
2018-09-23T05:20:24.758Z,11.64
2018-09-23T05:21:25.039Z,11.64
2018-09-23T05:22:24.799Z,11.65
2018-09-23T05:23:25.177Z,11.6
2018-09-23T05:24:24.581Z,11.73
2018-09-23T05:25:25.122Z,11.79
2018-09-23T05:26:24.884Z,11.75
2018-09-23T05:27:25.184Z,11.73
2018-09-23T05:28:25.175Z,11.82
2018-09-23T05:29:24.940Z,11.72
2018-09-23T05:30:24.955Z,11.76
2018-09-23T05:31:25.242Z,11.76
2018-09-23T05:33:39.936Z,11.83
2018-09-23T05:35:25.257Z,11.85
2018-09-23T05:36:25.338Z,11.85
2018-09-23T05:38:40.039Z,11.98
2018-09-23T05:39:25.396Z,11.98
2018-09-23T05:40:25.412Z,11.94
2018-09-23T05:41:25.440Z,12.01
2018-09-23T05:42:25.469Z,12.01
2018-09-23T05:43:25.482Z,11.98
2018-09-23T05:44:25.494Z,11.96
2018-09-23T05:45:25.259Z,11.96
2018-09-23T05:46:25.534Z,11.98
2018-09-23T05:47:25.705Z,11.96
2018-09-23T05:48:25.571Z,11.94
2018-09-23T05:49:40.261Z,11.88
2018-09-23T05:50:25.611Z,11.96
2018-09-23T05:51:25.636Z,12.01
2018-09-23T05:52:25.653Z,12.01
2018-09-23T05:53:25.692Z,12.1
2018-09-23T05:54:25.693Z,12.13
2018-09-23T05:55:25.466Z,12.16
2018-09-23T05:56:25.736Z,12.27
2018-09-23T05:57:40.413Z,12.23
2018-09-23T05:58:25.770Z,12.27
2018-09-23T05:59:25.794Z,12.32
2018-09-23T06:01:25.833Z,12.46
2018-09-23T06:02:25.853Z,12.47
2018-09-23T06:03:25.875Z,12.47
2018-09-23T06:04:40.557Z,12.46
2018-09-23T06:05:25.921Z,12.49
2018-09-23T06:06:25.935Z,12.46
2018-09-23T06:07:25.700Z,12.42
2018-09-23T06:08:25.978Z,12.45
2018-09-23T06:09:25.995Z,12.62
2018-09-23T06:10:40.681Z,12.53
2018-09-23T06:11:25.779Z,12.64
2018-09-23T06:12:26.056Z,12.64
2018-09-23T06:13:40.738Z,12.65
2018-09-23T06:14:26.100Z,12.67
2018-09-23T06:15:26.218Z,12.68
2018-09-23T06:16:26.140Z,12.64
2018-09-23T06:17:26.166Z,12.65
2018-09-23T06:18:26.345Z,12.71
2018-09-23T06:19:26.206Z,12.72
2018-09-23T06:20:26.220Z,12.79
2018-09-23T06:21:26.034Z,12.82
2018-09-23T06:22:26.315Z,12.85
2018-09-23T06:23:26.284Z,12.89
2018-09-23T06:25:26.587Z,12.93
2018-09-23T06:26:26.351Z,12.95
2018-09-23T06:27:26.107Z,13.01
2018-09-23T06:28:26.387Z,12.96
2018-09-23T06:29:41.064Z,13.05
2018-09-23T06:30:26.265Z,13.05
2018-09-23T06:31:26.460Z,13.14
2018-09-23T06:32:26.470Z,13.23
2018-09-23T06:33:26.501Z,13.15
2018-09-23T06:34:25.991Z,13.17
2018-09-23T06:35:26.275Z,13.26
2018-09-23T06:36:41.206Z,13.23
2018-09-23T06:37:26.308Z,13.3
2018-09-23T06:38:41.257Z,13.28
2018-09-23T06:41:26.647Z,13.55
2018-09-23T06:42:26.415Z,13.57
2018-09-23T06:43:26.438Z,13.63
2018-09-23T06:44:26.812Z,13.67
2018-09-23T06:45:26.480Z,13.69
2018-09-23T06:46:41.415Z,13.73
2018-09-23T06:47:26.519Z,13.67
2018-09-23T06:48:26.798Z,13.7
2018-09-23T06:49:26.565Z,13.75
2018-09-23T06:50:26.838Z,13.81
2018-09-23T06:52:41.545Z,13.91
2018-09-23T06:53:26.905Z,13.88
2018-09-23T06:54:26.925Z,13.92
2018-09-23T06:56:26.713Z,14.06
2018-09-23T06:57:27.236Z,14.07
2018-09-23T06:58:26.748Z,14.09
2018-09-23T06:59:26.776Z,14.06
2018-09-23T07:00:26.790Z,14.06
2018-09-23T07:01:41.732Z,14.15
2018-09-23T07:02:41.749Z,14.02
2018-09-23T07:03:27.113Z,14.17
2018-09-23T07:04:27.205Z,14.14
2018-09-23T07:05:27.166Z,14.21
2018-09-23T07:06:27.175Z,14.17
2018-09-23T07:07:26.942Z,14.14
2018-09-23T07:09:27.242Z,14.2
2018-09-23T07:10:27.524Z,14.35
2018-09-23T07:11:27.287Z,14.39
2018-09-23T07:12:27.316Z,14.37
2018-09-23T07:13:27.326Z,14.54
2018-09-23T07:14:27.353Z,14.58
2018-09-23T07:15:27.111Z,14.51
2018-09-23T07:16:27.134Z,14.61
2018-09-23T07:17:42.073Z,14.62
2018-09-23T07:18:27.444Z,14.7
2018-09-23T07:19:27.472Z,14.75
2018-09-23T07:20:27.526Z,15.06
2018-09-23T07:21:27.501Z,15.25
2018-09-23T07:22:27.520Z,15.43
2018-09-23T07:23:27.282Z,15.53
2018-09-23T07:24:42.231Z,15.59
2018-09-23T07:25:27.600Z,15.64
2018-09-23T07:26:27.615Z,15.47
2018-09-23T07:27:27.635Z,15.46
2018-09-23T07:28:27.649Z,15.43
2018-09-23T07:29:27.676Z,15.47
2018-09-23T07:30:27.439Z,15.41
2018-09-23T07:31:27.721Z,15.39
2018-09-23T07:32:27.488Z,15.39
2018-09-23T07:33:27.764Z,15.29
2018-09-23T07:34:27.787Z,15.27
2018-09-23T07:35:27.808Z,15.23
2018-09-23T07:36:27.827Z,15.21
2018-09-23T07:37:27.854Z,15.32
2018-09-23T07:38:27.989Z,15.39
2018-09-23T07:39:42.305Z,15.64
2018-09-23T07:42:27.969Z,15.89
2018-09-23T07:43:27.994Z,15.84
2018-09-23T07:44:28.012Z,16.09
2018-09-23T07:45:42.697Z,16.11
2018-09-23T07:46:28.057Z,16.08
2018-09-23T07:47:28.084Z,16.09
2018-09-23T07:48:27.850Z,16.24
2018-09-23T07:49:42.528Z,16.25
2018-09-23T07:50:28.150Z,16.33
2018-09-23T07:51:27.918Z,16.39
2018-09-23T07:52:28.195Z,16.39
2018-09-23T07:54:27.985Z,16.52
2018-09-23T07:55:28.265Z,16.5
2018-09-23T07:56:27.795Z,16.52
2018-09-23T07:57:28.310Z,16.57
2018-09-23T07:58:27.818Z,16.46
2018-09-23T07:59:28.356Z,16.39
2018-09-23T08:00:28.388Z,16.52
2018-09-23T08:01:43.067Z,16.49
2018-09-23T08:02:28.177Z,16.46
2018-09-23T08:03:28.679Z,16.56
2018-09-23T08:04:43.133Z,16.75
2018-09-23T08:05:42.900Z,16.73
2018-09-23T08:06:28.262Z,16.68
2018-09-23T08:07:28.542Z,16.66
2018-09-23T08:09:28.590Z,16.89
2018-09-23T08:10:28.613Z,16.93
2018-09-23T08:11:43.043Z,16.97
2018-09-23T08:12:43.646Z,17.18
2018-09-23T08:13:29.269Z,17.22
2018-09-23T08:15:28.524Z,17.28
2018-09-23T08:16:28.752Z,17.33
2018-09-23T08:17:28.786Z,17.16
2018-09-23T08:19:29.350Z,17.23
2018-09-23T08:20:29.663Z,17.3
2018-09-23T08:21:28.615Z,17.25
2018-09-23T08:22:28.904Z,17.16
2018-09-23T08:23:28.664Z,17.18
2018-09-23T08:24:28.952Z,17.21
2018-09-23T08:25:29.159Z,17.18
2018-09-23T08:26:29.123Z,17.22
2018-09-23T08:27:43.680Z,17.41
2018-09-23T08:28:29.037Z,17.54
2018-09-23T08:29:29.067Z,17.64
2018-09-23T08:30:29.089Z,17.68
2018-09-23T08:31:28.851Z,17.59
2018-09-23T08:32:29.138Z,17.66
2018-09-23T08:33:29.158Z,17.66
2018-09-23T08:34:28.923Z,17.63
2018-09-23T08:35:29.202Z,17.75
2018-09-23T08:36:28.972Z,17.64
2018-09-23T08:37:29.520Z,17.58
2018-09-23T08:38:29.274Z,17.64
2018-09-23T08:39:29.295Z,17.7
2018-09-23T08:40:29.320Z,17.59
2018-09-23T08:41:29.351Z,17.55
2018-09-23T08:42:29.371Z,17.56
2018-09-23T08:43:44.050Z,17.38
2018-09-23T08:44:29.422Z,17.38
2018-09-23T08:45:29.445Z,17.43
2018-09-23T08:46:29.664Z,17.44
2018-09-23T08:47:29.482Z,17.56
2018-09-23T08:48:29.794Z,17.28
2018-09-23T08:49:29.278Z,17.37
2018-09-23T08:50:29.553Z,17.4
2018-09-23T08:51:29.320Z,17.44
2018-09-23T08:52:29.650Z,17.34
2018-09-23T08:53:29.626Z,17.48
2018-09-23T08:54:29.644Z,17.56
2018-09-23T08:55:29.670Z,17.58
2018-09-23T08:56:29.444Z,17.68
2018-09-23T08:57:29.461Z,17.58
2018-09-23T08:58:29.840Z,17.22
2018-09-23T08:59:44.165Z,17.07
2018-09-23T09:00:29.533Z,17.14
2018-09-23T09:01:29.819Z,17.15
2018-09-23T09:02:29.831Z,17.16
2018-09-23T09:03:29.901Z,17.26
2018-09-23T09:04:29.620Z,17.48
2018-09-23T09:06:29.921Z,17.78
2018-09-23T09:07:29.946Z,17.95
2018-09-23T09:08:29.455Z,17.78
2018-09-23T09:09:44.667Z,17.79
2018-09-23T09:10:30.018Z,17.82
2018-09-23T09:12:29.809Z,17.77
2018-09-23T09:13:30.085Z,17.78
2018-09-23T09:14:44.779Z,17.78
2018-09-23T09:15:29.874Z,17.92
2018-09-23T09:16:30.154Z,17.75
2018-09-23T09:17:29.926Z,17.41
2018-09-23T09:18:30.728Z,17.54
2018-09-23T09:19:29.709Z,17.63
2018-09-23T09:20:30.249Z,17.64
2018-09-23T09:21:30.012Z,17.55
2018-09-23T09:22:30.301Z,17.55
2018-09-23T09:23:30.317Z,17.66
2018-09-23T09:24:30.085Z,17.55
2018-09-23T09:25:30.106Z,17.64
2018-09-23T09:26:30.472Z,17.64
2018-09-23T09:27:30.410Z,17.7
2018-09-23T09:29:30.207Z,17.81
2018-09-23T09:30:30.478Z,17.89
2018-09-23T09:31:30.506Z,17.78
2018-09-23T09:32:30.527Z,17.93
2018-09-23T09:33:30.553Z,17.93
2018-09-23T09:34:30.317Z,18.07
2018-09-23T09:35:30.457Z,18.14
2018-09-23T09:36:30.623Z,18.33
2018-09-23T09:37:30.639Z,18.26
2018-09-23T09:38:30.821Z,18.3
2018-09-23T09:39:30.690Z,18.33
2018-09-23T09:40:30.714Z,18.33
2018-09-23T09:41:30.476Z,18.3
2018-09-23T09:42:30.500Z,18.2
2018-09-23T09:43:30.784Z,18.3
2018-09-23T09:44:30.812Z,18.39
2018-09-23T09:45:30.576Z,18.36
2018-09-23T09:46:45.519Z,18.62
2018-09-23T09:47:30.620Z,18.55
2018-09-23T09:48:30.901Z,18.5
2018-09-23T09:49:30.927Z,18.54
2018-09-23T09:50:30.686Z,18.36
2018-09-23T09:51:30.709Z,18.48
2018-09-23T09:52:45.658Z,18.5
2018-09-23T09:54:31.050Z,18.65
2018-09-23T09:55:31.373Z,18.58
2018-09-23T09:56:45.743Z,18.39
2018-09-23T09:57:31.106Z,18.14
2018-09-23T09:58:31.138Z,18.42
2018-09-23T09:59:30.896Z,18.67
2018-09-23T10:00:31.174Z,18.75
2018-09-23T10:01:31.207Z,18.91
2018-09-23T10:02:45.885Z,18.88
2018-09-23T10:03:31.251Z,18.95
2018-09-23T10:04:31.272Z,19.07
2018-09-23T10:05:31.036Z,19.13
2018-09-23T10:06:31.321Z,19.31
2018-09-23T10:07:31.352Z,19.44
2018-09-23T10:08:31.365Z,19.19
2018-09-23T10:09:31.388Z,19.16
2018-09-23T10:10:31.419Z,19.41
2018-09-23T10:11:31.622Z,19.4
2018-09-23T10:12:31.460Z,19.55
2018-09-23T10:13:31.484Z,19.4
2018-09-23T10:14:31.547Z,19.5
2018-09-23T10:15:31.531Z,19.68
2018-09-23T10:16:31.560Z,19.58
2018-09-23T10:17:31.578Z,19.5
2018-09-23T10:18:46.266Z,19.56
2018-09-23T10:19:31.624Z,19.59
2018-09-23T10:20:31.654Z,19.62
2018-09-23T10:23:31.775Z,20.06
2018-09-23T10:24:31.745Z,20.32
2018-09-23T10:25:46.432Z,20.17
2018-09-23T10:26:31.797Z,20.18
2018-09-23T10:27:31.816Z,20.23
2018-09-23T10:28:31.924Z,20.24
2018-09-23T10:29:31.863Z,20.13
2018-09-23T10:30:31.893Z,20.21
2018-09-23T10:31:32.072Z,20.14
2018-09-23T10:32:31.938Z,20.11
2018-09-23T10:33:32.126Z,20.18
2018-09-23T10:34:46.387Z,20.29
2018-09-23T10:37:32.063Z,20.51
2018-09-23T10:38:32.148Z,20.32
2018-09-23T10:39:32.107Z,20.33
2018-09-23T10:40:31.869Z,20.54
2018-09-23T10:41:32.248Z,20.26
2018-09-23T10:42:46.839Z,20.21
2018-09-23T10:43:32.249Z,20.1
2018-09-23T10:44:46.885Z,19.84
2018-09-23T10:45:32.249Z,19.88
2018-09-23T10:46:32.273Z,19.96
2018-09-23T10:47:32.307Z,20.1
2018-09-23T10:48:32.336Z,20.13
2018-09-23T10:49:47.006Z,20.05
2018-09-23T10:50:32.112Z,19.76
2018-09-23T10:51:32.404Z,19.87
2018-09-23T10:53:32.445Z,19.77
2018-09-23T10:54:32.208Z,19.46
2018-09-23T10:55:32.405Z,19.5
2018-09-23T10:56:32.512Z,19.78
2018-09-23T10:57:32.281Z,19.71
2018-09-23T10:58:32.044Z,19.66
2018-09-23T10:59:32.871Z,19.71
2018-09-23T11:00:32.613Z,19.77
2018-09-23T11:01:32.637Z,19.51
2018-09-23T11:02:32.449Z,19.21
2018-09-23T11:03:32.682Z,19.14
2018-09-23T11:04:32.711Z,19.14
2018-09-23T11:05:32.733Z,19.19
2018-09-23T11:06:32.763Z,19
2018-09-23T11:07:33.009Z,18.82
2018-09-23T11:08:32.801Z,18.69
2018-09-23T11:09:32.824Z,18.72
2018-09-23T11:10:32.592Z,18.72
2018-09-23T11:11:32.877Z,18.67
2018-09-23T11:12:32.897Z,18.58
2018-09-23T11:13:32.923Z,18.41
2018-09-23T11:14:32.947Z,18.29
2018-09-23T11:16:32.990Z,18.08
2018-09-23T11:17:32.758Z,18.2
2018-09-23T11:18:33.041Z,18.21
2018-09-23T11:19:33.063Z,18.23
2018-09-23T11:20:33.101Z,18.26
2018-09-23T11:21:47.769Z,18.14
2018-09-23T11:22:33.134Z,17.97
2018-09-23T11:23:33.000Z,17.81
2018-09-23T11:24:33.183Z,17.72
2018-09-23T11:25:33.205Z,17.77
2018-09-23T11:26:33.228Z,17.9
2018-09-23T11:27:47.914Z,17.87
2018-09-23T11:28:33.016Z,17.95
2018-09-23T11:29:33.298Z,17.87
2018-09-23T11:31:33.087Z,17.77
2018-09-23T11:32:33.109Z,17.72
2018-09-23T11:33:33.392Z,17.71
2018-09-23T11:34:33.413Z,17.48
2018-09-23T11:35:33.436Z,17.25
2018-09-23T11:37:48.144Z,16.88
2018-09-23T11:39:33.536Z,16.49
2018-09-23T11:40:48.220Z,16.35
2018-09-23T11:42:33.600Z,16.25
2018-09-23T11:43:33.624Z,16.21
2018-09-23T11:44:33.651Z,16.25
2018-09-23T11:45:33.678Z,16.33
2018-09-23T11:46:48.352Z,16.39
2018-09-23T11:47:48.119Z,16.41
2018-09-23T11:48:33.481Z,16.31
2018-09-23T11:49:33.771Z,16.3
2018-09-23T11:50:33.787Z,16.27
2018-09-23T11:52:33.840Z,16.45
2018-09-23T11:53:48.511Z,16.27
2018-09-23T11:54:33.361Z,16.33
2018-09-23T11:55:33.654Z,16.31
2018-09-23T11:56:33.924Z,16.3
2018-09-23T11:57:33.944Z,16.21
2018-09-23T11:58:33.968Z,16.2
2018-09-23T11:59:33.990Z,16.27
2018-09-23T12:00:34.012Z,16.25
2018-09-23T12:01:34.038Z,16.21
2018-09-23T12:02:34.059Z,16.11
2018-09-23T12:03:34.083Z,16.08
2018-09-23T12:04:34.271Z,16.09
2018-09-23T12:05:33.611Z,16.11
2018-09-23T12:06:34.147Z,16.04
2018-09-23T12:07:34.172Z,16.02
2018-09-23T12:08:34.228Z,16
2018-09-23T12:09:48.878Z,16.04
2018-09-23T12:11:34.265Z,15.87
2018-09-23T12:12:34.281Z,15.89
2018-09-23T12:13:34.170Z,15.87
2018-09-23T12:14:34.071Z,15.84
2018-09-23T12:15:34.505Z,15.83
2018-09-23T12:16:34.118Z,15.89
2018-09-23T12:17:34.396Z,15.72
2018-09-23T12:18:34.548Z,15.69
2018-09-23T12:19:34.452Z,15.53
2018-09-23T12:20:34.471Z,15.49
2018-09-23T12:21:34.489Z,15.41
2018-09-23T12:22:34.512Z,15.44
2018-09-23T12:23:34.578Z,15.41
2018-09-23T12:24:49.226Z,15.39
2018-09-23T12:26:34.610Z,15.27
2018-09-23T12:27:34.624Z,15.34
2018-09-23T12:28:34.390Z,15.36
2018-09-23T12:29:34.844Z,15.46
2018-09-23T12:30:34.176Z,15.29
2018-09-23T12:31:49.377Z,15.36
2018-09-23T12:32:34.748Z,15.28
2018-09-23T12:33:34.503Z,15.31
2018-09-23T12:35:34.806Z,15.25
2018-09-23T12:36:34.311Z,15.23
2018-09-23T12:37:34.849Z,15.23
2018-09-23T12:38:34.619Z,15.03
2018-09-23T12:39:35.147Z,15.02
2018-09-23T12:40:34.921Z,15.01
2018-09-23T12:41:34.680Z,15.01
2018-09-23T12:42:34.966Z,14.84
2018-09-23T12:43:34.981Z,14.75
2018-09-23T12:44:35.005Z,14.77
2018-09-23T12:45:49.694Z,14.61
2018-09-23T12:46:35.061Z,14.58
2018-09-23T12:47:35.072Z,14.61
2018-09-23T12:48:34.849Z,14.57
2018-09-23T12:49:35.117Z,14.54
2018-09-23T12:50:35.142Z,14.39
2018-09-23T12:51:34.904Z,14.35
2018-09-23T12:52:35.183Z,14.29
2018-09-23T12:53:35.208Z,14.14
2018-09-23T12:54:35.228Z,14.22
2018-09-23T12:55:35.248Z,14.03
2018-09-23T12:57:35.295Z,14
2018-09-23T12:58:35.315Z,14.06
2018-09-23T12:59:35.334Z,13.95
2018-09-23T13:00:35.101Z,13.91
2018-09-23T13:01:35.123Z,13.92
2018-09-23T13:02:35.689Z,13.95
2018-09-23T13:03:35.426Z,13.89
2018-09-23T13:04:50.107Z,13.78
2018-09-23T13:05:35.467Z,13.84
2018-09-23T13:06:35.489Z,13.71
2018-09-23T13:07:35.516Z,13.77
2018-09-23T13:08:35.531Z,13.87
2018-09-23T13:09:35.556Z,13.75
2018-09-23T13:10:35.576Z,13.85
2018-09-23T13:11:35.596Z,13.79
2018-09-23T13:12:50.288Z,13.85
2018-09-23T13:13:35.651Z,13.75
2018-09-23T13:15:35.688Z,13.6
2018-09-23T13:16:35.708Z,13.67
2018-09-23T13:17:35.730Z,13.6
2018-09-23T13:18:35.791Z,13.6
2018-09-23T13:20:35.796Z,13.62
2018-09-23T13:21:35.826Z,13.6
2018-09-23T13:22:50.240Z,13.54
2018-09-23T13:23:35.864Z,13.6
2018-09-23T13:24:35.882Z,13.62
2018-09-23T13:25:35.912Z,13.54
2018-09-23T13:26:35.923Z,13.52
2018-09-23T13:27:35.946Z,13.54
2018-09-23T13:28:50.720Z,13.54
2018-09-23T13:29:35.989Z,13.51
2018-09-23T13:30:36.020Z,13.54
2018-09-23T13:32:35.795Z,13.36
2018-09-23T13:33:36.077Z,13.32
2018-09-23T13:34:36.094Z,13.41
2018-09-23T13:35:36.114Z,13.38
2018-09-23T13:36:36.135Z,13.36
2018-09-23T13:37:36.160Z,13.44
2018-09-23T13:38:50.840Z,13.33
2018-09-23T13:39:50.860Z,13.32
2018-09-23T13:40:36.223Z,13.22
2018-09-23T13:41:36.247Z,13.2
2018-09-23T13:42:36.267Z,13.22
2018-09-23T13:43:36.291Z,13.19
2018-09-23T13:44:50.969Z,13.1
2018-09-23T13:45:36.077Z,13.04
2018-09-23T13:46:36.436Z,13.03
2018-09-23T13:47:36.118Z,13.03